Time;durP1;ratioP1;P1;durP2;ratioP2;P2;SDS_P1;SDS_P2;PMS_P1;PMS_P2;Temp;Humidity;BMP_temperature;BMP_pressure;BME280_temperature;BME280_humidity;BME280_pressure;Samples;Min_cycle;Max_cycle;Signal;HPM_P1;HPM_P2
2022/10/09 00:01:25;;;;;;;16.17;7.65;;;10.50;99.90;;;;;;5052900;28;20125;-67
2022/10/09 00:03:53;;;;;;;12.32;7.32;;;10.60;99.90;;;;;;5041440;28;20041;-67
2022/10/09 00:06:22;;;;;;;17.83;7.85;;;10.50;99.90;;;;;;5053194;28;20466;-67
2022/10/09 00:08:47;;;;;;;17.88;7.18;;;10.50;99.90;;;;;;5051674;28;20017;-67
2022/10/09 00:11:17;;;;;;;10.63;7.57;;;10.50;99.90;;;;;;5052751;28;20039;-67
2022/10/09 00:13:43;;;;;;;15.63;7.82;;;10.40;99.90;;;;;;5036441;28;20493;-67
2022/10/09 00:16:11;;;;;;;17.17;8.00;;;10.40;99.90;;;;;;5040531;28;20013;-67
2022/10/09 00:18:37;;;;;;;13.15;7.55;;;10.40;99.90;;;;;;5051109;28;20041;-67
2022/10/09 00:21:04;;;;;;;16.80;7.78;;;10.30;99.90;;;;;;5042390;28;20100;-67
2022/10/09 00:23:30;;;;;;;15.20;7.47;;;10.40;99.90;;;;;;5041435;28;20041;-67
2022/10/09 00:25:58;;;;;;;18.25;9.13;;;10.30;99.90;;;;;;5041845;28;20377;-67
2022/10/09 00:28:26;;;;;;;12.70;7.18;;;10.30;99.90;;;;;;5041740;28;20049;-67
2022/10/09 00:30:52;;;;;;;9.45;6.28;;;10.20;99.90;;;;;;5042398;28;20084;-67
2022/10/09 00:33:18;;;;;;;15.27;6.28;;;10.20;99.90;;;;;;5042940;28;20037;-67
2022/10/09 00:35:44;;;;;;;14.05;6.40;;;10.20;99.90;;;;;;5044023;28;20074;-67
2022/10/09 00:38:10;;;;;;;15.77;6.78;;;10.20;99.90;;;;;;5042030;28;20033;-67
2022/10/09 00:40:36;;;;;;;11.20;7.35;;;10.20;99.90;;;;;;5041205;28;20025;-67
2022/10/09 00:43:02;;;;;;;18.08;7.72;;;10.10;99.90;;;;;;5035495;28;20478;-68
2022/10/09 00:45:28;;;;;;;14.73;8.13;;;10.10;99.90;;;;;;5042236;28;20022;-67
2022/10/09 00:48:01;;;;;;;11.32;6.45;;;10.10;99.90;;;;;;5041145;28;20025;-67
2022/10/09 00:50:39;;;;;;;14.77;7.13;;;9.90;99.90;;;;;;5041253;28;20017;-67
2022/10/09 00:53:05;;;;;;;14.23;6.10;;;9.80;99.90;;;;;;5042560;28;20013;-67
2022/10/09 00:55:34;;;;;;;11.68;6.35;;;9.80;99.90;;;;;;5042709;28;20034;-67
2022/10/09 00:58:01;;;;;;;14.52;6.07;;;9.90;99.90;;;;;;5042824;28;20021;-66
2022/10/09 01:00:26;;;;;;;14.00;6.53;;;9.90;99.90;;;;;;5038378;28;20398;-67
2022/10/09 01:02:53;;;;;;;10.13;6.53;;;9.90;99.90;;;;;;5039241;28;20029;-67
2022/10/09 01:05:33;;;;;;;11.85;5.90;;;9.80;99.90;;;;;;5040932;28;20033;-67
2022/10/09 01:08:18;;;;;;;9.23;5.93;;;9.80;99.90;;;;;;5043405;28;20079;-67
2022/10/09 01:11:07;;;;;;;9.75;5.78;;;9.80;99.90;;;;;;5043196;28;20032;-67
2022/10/09 01:13:42;;;;;;;10.48;5.90;;;9.70;99.90;;;;;;5044451;28;20017;-67
2022/10/09 01:16:29;;;;;;;18.85;6.20;;;9.70;99.90;;;;;;5041056;28;20037;-67
2022/10/09 01:19:29;;;;;;;15.95;6.75;;;9.40;99.90;;;;;;5042882;28;20032;-67
2022/10/09 01:22:29;;;;;;;12.20;6.30;;;9.40;99.90;;;;;;5039235;28;20026;-67
2022/10/09 01:25:34;;;;;;;12.15;6.00;;;9.40;99.90;;;;;;5039511;28;20017;-67
2022/10/09 01:28:03;;;;;;;12.18;6.70;;;9.30;99.90;;;;;;5037179;28;20107;-66
2022/10/09 01:30:29;;;;;;;12.52;6.10;;;9.20;99.90;;;;;;5050262;28;20557;-67
2022/10/09 01:32:56;;;;;;;10.73;6.07;;;9.30;99.90;;;;;;5043106;28;20060;-67
2022/10/09 01:35:22;;;;;;;16.13;6.00;;;9.30;99.90;;;;;;5042451;28;20037;-66
2022/10/09 01:37:52;;;;;;;14.57;5.25;;;9.30;99.90;;;;;;5041672;28;20009;-67
2022/10/09 01:40:19;;;;;;;12.60;6.13;;;9.30;99.90;;;;;;5041800;28;20114;-67
2022/10/09 01:42:47;;;;;;;9.85;5.88;;;9.30;99.90;;;;;;5039115;28;20410;-67
2022/10/09 01:45:14;;;;;;;12.38;5.78;;;9.20;99.90;;;;;;5041285;28;20021;-67
2022/10/09 01:47:40;;;;;;;18.08;6.47;;;9.30;99.90;;;;;;5041154;28;20030;-66
2022/10/09 01:50:24;;;;;;;12.38;6.70;;;9.20;99.90;;;;;;5039905;28;20024;-67
2022/10/09 01:52:52;;;;;;;9.73;5.95;;;9.20;99.90;;;;;;5041920;28;20026;-67
2022/10/09 01:55:39;;;;;;;8.55;5.53;;;9.20;99.90;;;;;;5037498;28;20157;-67
2022/10/09 01:58:36;;;;;;;13.80;6.13;;;9.20;99.90;;;;;;5041401;28;20022;-67
2022/10/09 02:01:08;;;;;;;10.32;5.90;;;9.20;99.90;;;;;;5042003;28;20041;-66
2022/10/09 02:03:37;;;;;;;14.85;5.55;;;9.10;99.90;;;;;;5046383;28;20536;-67
2022/10/09 02:06:08;;;;;;;12.45;5.30;;;9.10;99.90;;;;;;5045542;28;20021;-66
2022/10/09 02:08:36;;;;;;;9.68;5.70;;;9.10;99.90;;;;;;5045192;28;20075;-67
2022/10/09 02:11:03;;;;;;;11.90;5.95;;;9.10;99.90;;;;;;5043888;28;20477;-67
2022/10/09 02:13:31;;;;;;;9.45;5.78;;;9.00;99.90;;;;;;5044272;28;20515;-67
2022/10/09 02:16:13;;;;;;;15.05;6.07;;;9.00;99.90;;;;;;5041751;28;20093;-67
2022/10/09 02:18:44;;;;;;;10.07;4.97;;;9.00;99.90;;;;;;5044013;28;20021;-67
2022/10/09 02:21:25;;;;;;;12.18;5.40;;;8.90;99.90;;;;;;5045105;28;20021;-67
2022/10/09 02:23:53;;;;;;;16.02;5.57;;;8.90;99.90;;;;;;5045607;28;20095;-67
2022/10/09 02:26:19;;;;;;;9.45;5.22;;;8.80;99.90;;;;;;5043447;28;20052;-66
2022/10/09 02:28:45;;;;;;;12.05;5.28;;;8.80;99.90;;;;;;5037824;28;20041;-69
2022/10/09 02:31:11;;;;;;;12.25;5.38;;;8.80;99.90;;;;;;5043700;28;20052;-66
2022/10/09 02:33:37;;;;;;;8.95;4.50;;;8.80;99.90;;;;;;5045461;28;20064;-67
2022/10/09 02:36:03;;;;;;;13.38;5.90;;;8.80;99.90;;;;;;5043640;28;20079;-66
2022/10/09 02:38:29;;;;;;;10.85;5.90;;;8.80;99.90;;;;;;5045015;28;20074;-66
2022/10/09 02:40:58;;;;;;;10.13;5.55;;;8.70;99.90;;;;;;5044920;28;20021;-67
2022/10/09 02:43:24;;;;;;;9.18;5.43;;;8.70;99.90;;;;;;5043409;28;20033;-67
2022/10/09 02:45:50;;;;;;;11.80;5.60;;;8.70;99.90;;;;;;5043700;28;20415;-67
2022/10/09 02:48:15;;;;;;;8.18;5.18;;;8.60;99.90;;;;;;5044056;28;20466;-67
2022/10/09 02:50:41;;;;;;;12.13;5.47;;;8.60;99.90;;;;;;5046780;28;20025;-66
2022/10/09 02:53:06;;;;;;;10.98;5.65;;;8.50;99.90;;;;;;5042534;28;20022;-68
2022/10/09 02:55:32;;;;;;;9.13;4.97;;;8.60;99.90;;;;;;5033927;28;20053;-67
2022/10/09 02:57:58;;;;;;;23.05;6.03;;;8.50;99.90;;;;;;5046074;28;20029;-66
2022/10/09 03:00:23;;;;;;;11.70;5.95;;;8.50;99.90;;;;;;5043832;28;20025;-66
2022/10/09 03:02:49;;;;;;;13.27;5.90;;;8.50;99.90;;;;;;5035209;28;20041;-66
2022/10/09 03:05:15;;;;;;;8.23;5.53;;;8.50;99.90;;;;;;5035104;28;20140;-66
2022/10/09 03:07:41;;;;;;;14.02;5.88;;;8.50;99.90;;;;;;5034906;28;20061;-66
2022/10/09 03:10:07;;;;;;;17.77;6.30;;;8.50;99.90;;;;;;5034303;28;20020;-67
2022/10/09 03:12:32;;;;;;;12.20;5.90;;;8.40;99.90;;;;;;5041817;28;20034;-67
2022/10/09 03:14:58;;;;;;;8.57;5.90;;;8.40;99.90;;;;;;5034062;28;20021;-67
2022/10/09 03:17:24;;;;;;;11.35;5.72;;;8.40;99.90;;;;;;5034527;28;20034;-66
2022/10/09 03:19:49;;;;;;;12.02;5.82;;;8.30;99.90;;;;;;5051398;28;20116;-66
2022/10/09 03:22:15;;;;;;;12.68;5.85;;;8.30;99.90;;;;;;5054542;28;20474;-67
2022/10/09 03:24:40;;;;;;;12.77;6.28;;;8.30;99.90;;;;;;5054641;28;20036;-66
2022/10/09 03:27:06;;;;;;;20.08;6.57;;;8.30;99.90;;;;;;5048143;28;20049;-66
2022/10/09 03:29:31;;;;;;;12.68;6.15;;;8.30;99.90;;;;;;5033565;28;20018;-66
2022/10/09 03:31:57;;;;;;;17.83;6.53;;;8.20;99.90;;;;;;5051435;28;20033;-66
2022/10/09 03:34:22;;;;;;;14.93;6.93;;;8.20;99.90;;;;;;5053494;28;20023;-66
2022/10/09 03:36:49;;;;;;;12.55;6.93;;;8.20;99.90;;;;;;5054027;28;20428;-66
2022/10/09 03:39:14;;;;;;;15.00;6.90;;;8.20;99.90;;;;;;5042310;28;20036;-66
2022/10/09 03:41:40;;;;;;;13.38;7.15;;;8.20;99.90;;;;;;5033971;28;20393;-66
2022/10/09 03:44:05;;;;;;;12.68;6.57;;;8.10;99.90;;;;;;5037795;28;20558;-66
2022/10/09 03:46:31;;;;;;;14.57;7.13;;;8.10;99.90;;;;;;5054125;28;20505;-67
2022/10/09 03:48:57;;;;;;;14.45;6.70;;;8.10;99.90;;;;;;5049473;28;20101;-67
2022/10/09 03:51:22;;;;;;;15.82;6.95;;;8.00;99.90;;;;;;5045911;28;20033;-67
2022/10/09 03:53:48;;;;;;;16.35;7.43;;;8.00;99.90;;;;;;5044365;28;20036;-66
2022/10/09 03:56:14;;;;;;;11.80;7.47;;;8.00;99.90;;;;;;5043993;28;20017;-67
2022/10/09 03:58:39;;;;;;;12.32;7.38;;;8.00;99.90;;;;;;5041565;28;20030;-66
2022/10/09 04:01:05;;;;;;;14.23;6.75;;;8.00;99.90;;;;;;5042916;28;20139;-66
2022/10/09 04:03:30;;;;;;;16.02;7.22;;;8.00;99.90;;;;;;5043259;28;20130;-66
2022/10/09 04:05:56;;;;;;;11.82;7.28;;;8.10;99.90;;;;;;5037195;28;20018;-67
2022/10/09 04:08:22;;;;;;;14.52;7.03;;;8.00;99.90;;;;;;5047723;28;20064;-66
2022/10/09 04:10:47;;;;;;;14.80;7.32;;;8.00;99.90;;;;;;5046191;28;20025;-66
2022/10/09 04:13:13;;;;;;;14.25;6.95;;;8.00;99.90;;;;;;5038010;28;20036;-67
2022/10/09 04:15:39;;;;;;;9.93;6.57;;;8.00;99.90;;;;;;5032403;28;20030;-67
2022/10/09 04:18:04;;;;;;;14.40;6.85;;;8.00;99.90;;;;;;5033356;28;20030;-66
2022/10/09 04:20:30;;;;;;;16.67;6.43;;;7.90;99.90;;;;;;5033381;28;20033;-67
2022/10/09 04:22:56;;;;;;;13.63;6.88;;;7.90;99.90;;;;;;5031806;28;20041;-66
2022/10/09 04:25:22;;;;;;;11.88;6.30;;;7.90;99.90;;;;;;5032436;28;20025;-66
2022/10/09 04:27:47;;;;;;;18.67;6.57;;;7.90;99.90;;;;;;5043404;28;20389;-66
2022/10/09 04:30:13;;;;;;;18.02;6.72;;;7.80;99.90;;;;;;5050362;28;20420;-67
2022/10/09 04:32:38;;;;;;;12.80;6.88;;;7.80;99.90;;;;;;5053379;28;20454;-66
2022/10/09 04:35:05;;;;;;;15.93;7.13;;;7.80;99.90;;;;;;5047230;28;20469;-66
2022/10/09 04:37:30;;;;;;;12.23;6.32;;;7.80;99.90;;;;;;5044487;28;20067;-66
2022/10/09 04:39:56;;;;;;;13.90;6.70;;;7.70;99.90;;;;;;5039389;28;20458;-66
2022/10/09 04:42:22;;;;;;;16.20;7.18;;;7.70;99.90;;;;;;5039954;28;20124;-66
2022/10/09 04:44:47;;;;;;;14.55;6.88;;;7.80;99.90;;;;;;5036936;28;20390;-67
2022/10/09 04:47:13;;;;;;;22.05;7.03;;;7.70;99.90;;;;;;5049207;28;20033;-66
2022/10/09 04:49:38;;;;;;;13.15;7.28;;;7.70;99.90;;;;;;5038833;28;20029;-67
2022/10/09 04:52:04;;;;;;;13.43;6.65;;;7.60;99.90;;;;;;5040096;28;20024;-66
2022/10/09 04:54:29;;;;;;;10.23;6.25;;;7.60;99.90;;;;;;5045783;28;20033;-66
2022/10/09 04:56:55;;;;;;;11.70;6.72;;;7.60;99.90;;;;;;5038528;28;20033;-66
2022/10/09 04:59:21;;;;;;;13.48;6.00;;;7.60;99.90;;;;;;5038558;28;20367;-66
2022/10/09 05:01:46;;;;;;;13.18;6.10;;;7.60;99.90;;;;;;5046657;28;20094;-66
2022/10/09 05:04:12;;;;;;;9.85;6.63;;;7.60;99.90;;;;;;5037818;28;20378;-66
2022/10/09 05:06:37;;;;;;;12.07;6.82;;;7.60;99.90;;;;;;5048353;28;20032;-66
2022/10/09 05:09:03;;;;;;;15.27;6.05;;;7.60;99.90;;;;;;5053772;28;20480;-67
2022/10/09 05:11:29;;;;;;;13.80;6.38;;;7.50;99.90;;;;;;5050843;28;20039;-66
2022/10/09 05:13:56;;;;;;;14.88;6.70;;;7.50;99.90;;;;;;5046635;28;20400;-66
2022/10/09 05:16:25;;;;;;;13.20;6.72;;;7.50;99.90;;;;;;5071906;28;20024;-66
2022/10/09 05:18:53;;;;;;;11.73;6.40;;;7.50;99.90;;;;;;5042635;28;20043;-68
2022/10/09 05:21:20;;;;;;;16.67;6.22;;;7.50;99.90;;;;;;5040737;28;20043;-66
2022/10/09 05:23:46;;;;;;;15.35;6.65;;;7.50;99.90;;;;;;5043448;28;20083;-66
2022/10/09 05:26:14;;;;;;;11.88;6.40;;;7.50;99.90;;;;;;5051212;28;20026;-66
2022/10/09 05:28:40;;;;;;;11.25;6.55;;;7.40;99.90;;;;;;5041081;28;20056;-66
2022/10/09 05:31:07;;;;;;;14.93;7.35;;;7.40;99.90;;;;;;5039746;28;20373;-66
2022/10/09 05:33:33;;;;;;;11.85;6.63;;;7.40;99.90;;;;;;5038527;28;20029;-66
2022/10/09 05:36:01;;;;;;;10.85;6.80;;;7.30;99.90;;;;;;5039635;28;20373;-66
2022/10/09 05:38:27;;;;;;;9.85;6.07;;;7.30;99.90;;;;;;5050943;28;20477;-66
2022/10/09 05:40:55;;;;;;;12.57;7.55;;;7.30;99.90;;;;;;5042435;28;20044;-67
2022/10/09 05:43:34;;;;;;;19.30;7.18;;;7.30;99.90;;;;;;5050597;28;20040;-66
2022/10/09 05:46:10;;;;;;;12.77;7.03;;;7.30;99.90;;;;;;5061149;28;20033;-67
2022/10/09 05:48:37;;;;;;;10.45;6.55;;;7.30;99.90;;;;;;5049747;28;20017;-66
2022/10/09 05:51:21;;;;;;;14.55;7.55;;;7.30;99.90;;;;;;5066275;28;20029;-66
2022/10/09 05:53:47;;;;;;;14.30;6.90;;;7.20;99.90;;;;;;5050255;28;20083;-66
2022/10/09 05:56:18;;;;;;;11.25;6.75;;;7.30;99.90;;;;;;5057691;28;20385;-68
2022/10/09 05:58:49;;;;;;;12.32;7.93;;;7.30;99.90;;;;;;5061534;28;20047;-66
2022/10/09 06:01:15;;;;;;;14.48;6.75;;;7.20;99.90;;;;;;5048532;28;20025;-66
2022/10/09 06:03:40;;;;;;;12.10;7.40;;;7.20;99.90;;;;;;5044926;28;20049;-66
2022/10/09 06:06:07;;;;;;;13.38;6.60;;;7.20;99.90;;;;;;5041825;28;20018;-67
2022/10/09 06:08:37;;;;;;;15.98;6.95;;;7.20;99.90;;;;;;5046698;28;20548;-66
2022/10/09 06:11:13;;;;;;;14.52;6.88;;;7.20;99.90;;;;;;5046615;28;20024;-67
2022/10/09 06:13:39;;;;;;;9.95;5.90;;;7.10;99.90;;;;;;5052079;28;20096;-67
2022/10/09 06:16:05;;;;;;;10.15;6.53;;;7.10;99.90;;;;;;5038915;28;20113;-66
2022/10/09 06:18:31;;;;;;;11.25;6.78;;;7.20;99.90;;;;;;5033065;28;20133;-66
2022/10/09 06:21:00;;;;;;;11.55;7.25;;;7.20;99.90;;;;;;5030062;28;20025;-66
2022/10/09 06:23:26;;;;;;;13.38;7.60;;;7.20;99.90;;;;;;5041000;28;20052;-66
2022/10/09 06:25:54;;;;;;;8.52;6.72;;;7.20;99.90;;;;;;5051337;28;20067;-66
2022/10/09 06:28:20;;;;;;;10.98;7.00;;;7.20;99.90;;;;;;5042186;28;20025;-66
2022/10/09 06:30:46;;;;;;;17.20;7.93;;;7.20;99.90;;;;;;5037315;28;20022;-66
2022/10/09 06:33:11;;;;;;;12.38;7.30;;;7.20;99.90;;;;;;5040333;28;20072;-66
2022/10/09 06:35:37;;;;;;;12.75;7.55;;;7.10;99.90;;;;;;5036079;28;20063;-67
2022/10/09 06:38:03;;;;;;;15.13;7.45;;;7.10;99.90;;;;;;5040176;28;20072;-66
2022/10/09 06:40:28;;;;;;;12.32;7.63;;;7.20;99.90;;;;;;5046214;28;20037;-66
2022/10/09 06:42:54;;;;;;;16.13;7.10;;;7.20;99.90;;;;;;5071944;28;20044;-66
2022/10/09 06:45:19;;;;;;;11.90;7.32;;;7.20;99.90;;;;;;5070503;28;20021;-66
2022/10/09 06:47:45;;;;;;;9.10;6.78;;;7.20;99.90;;;;;;5037340;28;20478;-66
2022/10/09 06:50:11;;;;;;;15.50;8.82;;;7.30;99.90;;;;;;5034784;28;20029;-67
2022/10/09 06:52:36;;;;;;;11.60;8.25;;;7.30;99.90;;;;;;5035091;28;20022;-72
2022/10/09 06:55:02;;;;;;;15.30;8.55;;;7.30;99.90;;;;;;5042783;28;20032;-66
2022/10/09 06:57:28;;;;;;;16.70;9.40;;;7.30;99.90;;;;;;5055184;28;20104;-67
2022/10/09 06:59:53;;;;;;;15.07;8.13;;;7.30;99.90;;;;;;5054755;28;20462;-66
2022/10/09 07:02:19;;;;;;;11.85;7.82;;;7.40;99.90;;;;;;5055271;28;20039;-66
2022/10/09 07:04:46;;;;;;;15.50;8.85;;;7.30;99.90;;;;;;5054280;28;20025;-66
2022/10/09 07:07:11;;;;;;;11.05;7.70;;;7.40;99.90;;;;;;5053376;28;20540;-66
2022/10/09 07:09:37;;;;;;;18.50;8.30;;;7.40;99.90;;;;;;5054520;28;20108;-66
2022/10/09 07:12:02;;;;;;;16.48;7.88;;;7.40;99.90;;;;;;5040637;28;20021;-67
2022/10/09 07:14:28;;;;;;;13.38;8.00;;;7.50;99.90;;;;;;5034816;28;20449;-67
2022/10/09 07:16:54;;;;;;;14.60;8.50;;;7.50;99.90;;;;;;5041891;28;20103;-66
2022/10/09 07:19:20;;;;;;;16.42;7.90;;;7.50;99.90;;;;;;5034767;28;20025;-66
2022/10/09 07:21:48;;;;;;;10.93;8.65;;;7.50;99.90;;;;;;5034316;28;20383;-66
2022/10/09 07:24:14;;;;;;;13.50;7.85;;;7.50;99.90;;;;;;5038227;28;20044;-66
2022/10/09 07:26:42;;;;;;;12.75;7.93;;;7.50;99.90;;;;;;5044785;28;20025;-66
2022/10/09 07:29:10;;;;;;;16.80;8.93;;;7.60;99.90;;;;;;5045155;28;20093;-67
2022/10/09 07:31:36;;;;;;;15.05;8.88;;;7.60;99.90;;;;;;5051041;28;20032;-66
2022/10/09 07:34:02;;;;;;;12.23;8.40;;;7.70;99.90;;;;;;5045182;28;20466;-66
2022/10/09 07:36:27;;;;;;;15.18;9.13;;;7.60;99.90;;;;;;5037195;28;20029;-66
2022/10/09 07:38:55;;;;;;;15.15;9.77;;;7.60;99.90;;;;;;5045795;28;20490;-66
2022/10/09 07:41:24;;;;;;;15.85;8.65;;;7.60;99.90;;;;;;5047472;28;20389;-66
2022/10/09 07:43:49;;;;;;;16.05;8.05;;;7.70;99.90;;;;;;5048291;28;20032;-66
2022/10/09 07:46:18;;;;;;;14.68;9.73;;;7.70;99.90;;;;;;5047034;28;20484;-66
2022/10/09 07:48:43;;;;;;;13.55;9.30;;;7.80;99.90;;;;;;5042518;28;20066;-66
2022/10/09 07:51:25;;;;;;;15.18;10.52;;;7.90;99.90;;;;;;5045579;28;20410;-66
2022/10/09 07:53:52;;;;;;;15.57;8.90;;;7.90;99.90;;;;;;5049059;28;20035;-66
2022/10/09 07:56:19;;;;;;;15.68;9.25;;;8.00;99.90;;;;;;5039782;28;20033;-67
2022/10/09 07:58:49;;;;;;;18.17;10.55;;;8.00;99.90;;;;;;5037214;28;20033;-66
2022/10/09 08:01:15;;;;;;;20.35;10.05;;;8.20;99.90;;;;;;5035202;28;20017;-66
2022/10/09 08:03:40;;;;;;;16.17;10.90;;;8.30;99.90;;;;;;5048716;28;20052;-67
2022/10/09 08:06:06;;;;;;;21.17;11.52;;;8.20;99.90;;;;;;5046043;28;20032;-66
2022/10/09 08:08:32;;;;;;;19.77;12.90;;;8.30;99.90;;;;;;5041921;28;20044;-67
2022/10/09 08:10:57;;;;;;;17.13;11.52;;;8.50;99.90;;;;;;5045738;28;20516;-67
2022/10/09 08:13:23;;;;;;;21.08;11.60;;;8.50;99.90;;;;;;5038629;28;20066;-67
2022/10/09 08:15:49;;;;;;;23.17;12.75;;;8.70;99.90;;;;;;5058259;28;20049;-67
2022/10/09 08:18:14;;;;;;;18.65;12.05;;;8.80;99.90;;;;;;5045401;28;20028;-67
2022/10/09 08:20:40;;;;;;;22.20;12.38;;;8.90;99.90;;;;;;5036290;28;20034;-67
2022/10/09 08:23:06;;;;;;;22.52;11.77;;;9.00;99.90;;;;;;5042192;28;20051;-67
2022/10/09 08:25:35;;;;;;;24.77;11.20;;;9.10;99.90;;;;;;5038927;28;20068;-67
2022/10/09 08:28:01;;;;;;;27.00;11.63;;;9.20;99.90;;;;;;5042641;28;20040;-66
2022/10/09 08:30:27;;;;;;;26.60;11.85;;;9.30;99.90;;;;;;5042106;28;20025;-67
2022/10/09 08:32:53;;;;;;;25.98;11.68;;;9.40;99.90;;;;;;5044353;28;20040;-67
2022/10/09 08:35:19;;;;;;;21.33;11.27;;;9.60;99.90;;;;;;5039176;28;20025;-67
2022/10/09 08:37:44;;;;;;;28.05;11.77;;;9.60;99.90;;;;;;5041957;28;20382;-67
2022/10/09 08:40:20;;;;;;;22.83;9.35;;;9.80;99.90;;;;;;5039510;28;20099;-67
2022/10/09 08:43:03;;;;;;;16.75;7.97;;;9.80;99.90;;;;;;5050440;28;20044;-67
2022/10/09 08:45:30;;;;;;;16.83;8.80;;;9.90;99.90;;;;;;5043844;28;20060;-67
2022/10/09 08:48:05;;;;;;;15.02;8.50;;;10.10;99.90;;;;;;5043919;28;20120;-67
2022/10/09 08:50:40;;;;;;;17.33;9.55;;;10.30;99.90;;;;;;5044311;28;20029;-71
2022/10/09 08:53:24;;;;;;;14.60;8.27;;;10.30;99.90;;;;;;5035996;28;20409;-67
2022/10/09 08:55:54;;;;;;;14.13;8.48;;;10.60;99.90;;;;;;5042377;28;20033;-67
2022/10/09 08:58:22;;;;;;;21.98;8.80;;;10.80;99.90;;;;;;5036623;28;20040;-67
2022/10/09 09:00:56;;;;;;;17.55;8.30;;;10.90;99.90;;;;;;5037745;28;20031;-67
2022/10/09 09:03:34;;;;;;;18.38;7.50;;;11.00;99.90;;;;;;5036170;28;20096;-67
2022/10/09 09:06:28;;;;;;;14.73;8.43;;;11.10;99.90;;;;;;5006794;28;20719;-68
2022/10/09 09:08:56;;;;;;;15.82;7.82;;;11.30;99.90;;;;;;5027345;28;20481;-68
2022/10/09 09:12:08;;;;;;;18.73;7.40;;;11.40;99.90;;;;;;5033654;28;20533;-67
2022/10/09 09:15:15;;;;;;;13.55;7.45;;;11.50;99.90;;;;;;5023508;28;20033;-68
2022/10/09 09:17:59;;;;;;;17.27;6.78;;;11.70;99.90;;;;;;5025882;28;20120;-68
2022/10/09 09:20:31;;;;;;;13.05;6.55;;;12.10;99.90;;;;;;5034862;28;23270;-68
2022/10/09 09:23:00;;;;;;;13.55;6.18;;;12.20;99.90;;;;;;5034820;28;20533;-67
2022/10/09 09:25:34;;;;;;;13.05;6.55;;;12.40;99.90;;;;;;5032919;28;20032;-67
2022/10/09 09:28:15;;;;;;;14.32;6.20;;;12.50;99.90;;;;;;5037017;28;20024;-68
2022/10/09 09:30:47;;;;;;;9.63;5.45;;;12.70;99.90;;;;;;5034173;28;20112;-68
2022/10/09 09:33:23;;;;;;;12.45;5.95;;;12.90;99.90;;;;;;5032724;28;20017;-69
2022/10/09 09:36:06;;;;;;;9.30;5.10;;;13.00;99.90;;;;;;5035329;28;20424;-68
2022/10/09 09:38:31;;;;;;;8.80;5.53;;;13.20;99.90;;;;;;5036585;28;20052;-68
2022/10/09 09:40:57;;;;;;;16.73;5.40;;;13.30;99.90;;;;;;5033662;28;20057;-69
2022/10/09 09:43:25;;;;;;;16.75;4.82;;;13.40;99.90;;;;;;5030478;28;20041;-68
2022/10/09 09:45:53;;;;;;;14.32;5.95;;;13.60;99.90;;;;;;5030380;28;20136;-68
2022/10/09 09:48:22;;;;;;;8.15;5.07;;;13.70;99.90;;;;;;5032958;28;20025;-68
2022/10/09 09:50:51;;;;;;;9.80;5.43;;;13.80;99.90;;;;;;5030222;28;20029;-68
2022/10/09 09:53:33;;;;;;;10.13;4.70;;;14.00;99.90;;;;;;5031913;28;20533;-69
2022/10/09 09:55:59;;;;;;;7.70;4.67;;;14.10;99.90;;;;;;5036753;28;20025;-68
2022/10/09 09:58:39;;;;;;;13.45;4.45;;;14.20;99.90;;;;;;5033445;28;20022;-68
2022/10/09 10:01:06;;;;;;;13.88;4.78;;;14.40;99.90;;;;;;5033075;28;20044;-68
2022/10/09 10:03:34;;;;;;;11.55;5.10;;;14.50;99.90;;;;;;5045090;28;20384;-68
2022/10/09 10:06:00;;;;;;;9.30;3.90;;;14.60;99.90;;;;;;5042642;28;20049;-68
2022/10/09 10:08:27;;;;;;;10.55;4.13;;;14.60;99.90;;;;;;5038299;28;20041;-70
2022/10/09 10:10:55;;;;;;;8.13;4.60;;;14.80;99.90;;;;;;5041463;28;20064;-67
2022/10/09 10:13:26;;;;;;;9.15;4.07;;;14.90;99.90;;;;;;5042634;28;20442;-69
2022/10/09 10:15:56;;;;;;;9.93;4.03;;;15.00;99.90;;;;;;5045454;28;20039;-69
2022/10/09 10:18:28;;;;;;;16.48;4.22;;;15.10;99.90;;;;;;5035922;28;20596;-68
2022/10/09 10:21:02;;;;;;;10.98;4.30;;;15.20;99.90;;;;;;5037738;28;20071;-68
2022/10/09 10:23:36;;;;;;;11.82;4.47;;;15.30;99.90;;;;;;5042582;28;20040;-68
2022/10/09 10:26:36;;;;;;;8.40;4.00;;;15.30;99.90;;;;;;5048679;28;20075;-68
2022/10/09 10:29:15;;;;;;;10.98;4.35;;;15.50;99.90;;;;;;5046811;28;20032;-69
2022/10/09 10:31:44;;;;;;;12.80;4.35;;;15.70;99.90;;;;;;5045762;28;20032;-68
2022/10/09 10:34:19;;;;;;;10.90;4.47;;;15.70;99.90;;;;;;5053279;28;20039;-68
2022/10/09 10:36:46;;;;;;;10.18;4.22;;;15.80;99.90;;;;;;5038442;28;20029;-68
2022/10/09 10:39:22;;;;;;;10.02;4.07;;;16.00;99.90;;;;;;5050418;28;20087;-67
2022/10/09 10:41:52;;;;;;;12.35;3.83;;;16.10;99.90;;;;;;5047669;28;20071;-67
2022/10/09 10:44:28;;;;;;;8.15;3.90;;;16.10;99.90;;;;;;5045839;28;20045;-68
2022/10/09 10:47:00;;;;;;;9.25;3.53;;;16.20;99.90;;;;;;5045827;28;20112;-67
2022/10/09 10:49:26;;;;;;;11.02;3.90;;;16.20;99.90;;;;;;5045469;28;20025;-68
2022/10/09 10:52:11;;;;;;;5.53;3.92;;;16.30;99.90;;;;;;5045717;28;20021;-68
2022/10/09 10:54:46;;;;;;;7.00;4.25;;;16.30;99.90;;;;;;5039161;28;20072;-68
2022/10/09 10:57:19;;;;;;;10.20;3.88;;;16.30;99.90;;;;;;5043242;28;20045;-68
2022/10/09 11:00:05;;;;;;;11.23;4.32;;;16.40;99.90;;;;;;5042512;28;20037;-68
2022/10/09 11:02:39;;;;;;;6.43;3.88;;;16.50;99.90;;;;;;5038268;28;20032;-69
2022/10/09 11:05:26;;;;;;;8.02;3.50;;;16.60;99.90;;;;;;5038549;28;20025;-69
2022/10/09 11:07:58;;;;;;;7.97;4.68;;;16.60;99.90;;;;;;5038055;28;20032;-68
2022/10/09 11:10:39;;;;;;;10.77;3.77;;;16.70;99.90;;;;;;5043813;28;20072;-68
2022/10/09 11:13:16;;;;;;;9.02;3.70;;;16.80;99.90;;;;;;5037210;28;20087;-69
2022/10/09 11:15:55;;;;;;;6.63;4.15;;;16.90;99.90;;;;;;5045140;28;20116;-68
2022/10/09 11:18:30;;;;;;;7.32;3.60;;;17.10;99.90;;;;;;5045152;28;20135;-68
2022/10/09 11:21:02;;;;;;;6.57;4.13;;;17.10;99.90;;;;;;5040531;28;20030;-69
2022/10/09 11:23:36;;;;;;;7.47;4.05;;;16.90;99.90;;;;;;5044102;28;20037;-69
2022/10/09 11:26:21;;;;;;;13.77;4.28;;;17.10;99.90;;;;;;5039978;28;20022;-68
2022/10/09 11:29:12;;;;;;;13.20;3.63;;;17.20;99.90;;;;;;5046143;28;20032;-68
2022/10/09 11:31:55;;;;;;;7.22;3.72;;;17.30;99.90;;;;;;5043026;28;20359;-68
2022/10/09 11:34:29;;;;;;;7.90;4.10;;;17.30;99.90;;;;;;5041355;28;20032;-68
2022/10/09 11:36:57;;;;;;;8.43;3.85;;;17.50;99.90;;;;;;5041038;28;20013;-68
2022/10/09 11:39:26;;;;;;;9.55;4.05;;;17.50;99.90;;;;;;5042978;28;20204;-69
2022/10/09 11:41:53;;;;;;;6.63;3.55;;;17.60;99.90;;;;;;5041840;28;20524;-68
2022/10/09 11:44:38;;;;;;;11.27;3.63;;;17.60;99.90;;;;;;5042694;28;20041;-69
2022/10/09 11:47:36;;;;;;;7.90;3.30;;;17.70;99.90;;;;;;5042134;28;20033;-70
2022/10/09 11:50:24;;;;;;;6.90;3.65;;;17.70;99.90;;;;;;5038083;28;20112;-68
2022/10/09 11:53:02;;;;;;;9.40;3.35;;;17.70;99.90;;;;;;5039392;28;20028;-69
2022/10/09 11:55:31;;;;;;;8.48;3.13;;;17.80;99.90;;;;;;5044235;28;20378;-69
2022/10/09 11:58:18;;;;;;;5.35;2.50;;;17.80;99.90;;;;;;5044300;28;20063;-69
2022/10/09 12:00:45;;;;;;;6.88;3.38;;;17.90;99.90;;;;;;5042170;28;20032;-69
2022/10/09 12:03:35;;;;;;;5.47;3.40;;;17.80;99.90;;;;;;5042836;28;20041;-69
2022/10/09 12:06:13;;;;;;;8.88;3.50;;;17.80;99.90;;;;;;5042664;28;20044;-69
2022/10/09 12:08:52;;;;;;;6.82;3.03;;;17.70;99.90;;;;;;5048688;28;20457;-69
2022/10/09 12:11:18;;;;;;;9.20;2.70;;;17.70;99.90;;;;;;5043989;28;20022;-69
2022/10/09 12:13:56;;;;;;;9.32;3.28;;;17.70;99.90;;;;;;5041210;28;20035;-69
2022/10/09 12:16:36;;;;;;;7.07;3.17;;;17.70;99.90;;;;;;5042244;28;20057;-69
2022/10/09 12:19:30;;;;;;;7.13;2.72;;;17.80;99.90;;;;;;5044374;28;20500;-69
2022/10/09 12:21:55;;;;;;;11.50;3.00;;;17.70;99.90;;;;;;5037029;28;20049;-68
2022/10/09 12:24:38;;;;;;;4.72;2.65;;;17.70;99.90;;;;;;5044431;28;20474;-68
2022/10/09 12:27:05;;;;;;;4.65;2.22;;;17.70;99.90;;;;;;5051314;28;20393;-68
2022/10/09 12:29:44;;;;;;;9.00;3.28;;;17.80;99.90;;;;;;5042686;28;20942;-68
2022/10/09 12:32:40;;;;;;;5.30;2.13;;;17.90;99.90;;;;;;5037678;28;20029;-69
2022/10/09 12:35:40;;;;;;;7.82;2.13;;;17.80;99.90;;;;;;5041674;28;20044;-70
2022/10/09 12:38:28;;;;;;;4.43;2.10;;;17.90;99.90;;;;;;5038858;28;20096;-69
2022/10/09 12:40:58;;;;;;;6.22;2.50;;;17.90;99.90;;;;;;5041446;28;20024;-68
2022/10/09 12:43:24;;;;;;;9.07;2.90;;;17.80;99.90;;;;;;5032762;28;20413;-68
2022/10/09 12:45:51;;;;;;;3.53;2.80;;;17.70;99.90;;;;;;5039983;28;20083;-68
2022/10/09 12:48:24;;;;;;;4.53;2.78;;;17.80;99.90;;;;;;5039214;28;20029;-68
2022/10/09 12:50:50;;;;;;;6.72;2.38;;;17.70;99.90;;;;;;5039886;28;20031;-68
2022/10/09 12:53:24;;;;;;;4.43;2.47;;;17.70;99.90;;;;;;5044685;28;20063;-68
2022/10/09 12:55:51;;;;;;;7.70;2.50;;;17.90;99.90;;;;;;5044626;28;20020;-69
2022/10/09 12:58:23;;;;;;;3.45;1.90;;;17.90;99.90;;;;;;5034375;28;20139;-68
2022/10/09 13:00:53;;;;;;;6.55;1.90;;;17.90;99.90;;;;;;5035886;28;20132;-69
2022/10/09 13:03:32;;;;;;;3.42;1.40;;;17.90;99.90;;;;;;5041962;28;20115;-68